sensor_id;sensor_type;location;lat;lon;timestamp;temperature;humidity
12039;DHT22;6080;48.818;9.526;2022-11-28T00:01:08;5.60;99.90
12039;DHT22;6080;48.818;9.526;2022-11-28T00:03:34;5.60;99.90
12039;DHT22;6080;48.818;9.526;2022-11-28T00:06:04;5.50;99.90
12039;DHT22;6080;48.818;9.526;2022-11-28T00:08:31;5.60;99.90
12039;DHT22;6080;48.818;9.526;2022-11-28T00:10:57;5.60;99.90
12039;DHT22;6080;48.818;9.526;2022-11-28T00:13:23;5.60;99.90
12039;DHT22;6080;48.818;9.526;2022-11-28T00:15:59;5.60;99.90
12039;DHT22;6080;48.818;9.526;2022-11-28T00:18:25;5.60;99.90
12039;DHT22;6080;48.818;9.526;2022-11-28T00:20:51;5.50;99.90
12039;DHT22;6080;48.818;9.526;2022-11-28T00:23:17;5.60;99.90
12039;DHT22;6080;48.818;9.526;2022-11-28T00:25:43;5.60;99.90
12039;DHT22;6080;48.818;9.526;2022-11-28T00:28:08;5.60;99.90
12039;DHT22;6080;48.818;9.526;2022-11-28T00:30:37;5.70;99.90
12039;DHT22;6080;48.818;9.526;2022-11-28T00:33:03;5.70;99.90
12039;DHT22;6080;48.818;9.526;2022-11-28T00:35:30;5.70;99.90
12039;DHT22;6080;48.818;9.526;2022-11-28T00:37:55;5.70;99.90
12039;DHT22;6080;48.818;9.526;2022-11-28T00:40:21;5.60;99.90
12039;DHT22;6080;48.818;9.526;2022-11-28T00:42:47;5.60;99.90
12039;DHT22;6080;48.818;9.526;2022-11-28T00:45:13;5.70;99.90
12039;DHT22;6080;48.818;9.526;2022-11-28T00:47:38;5.70;99.90
12039;DHT22;6080;48.818;9.526;2022-11-28T00:50:05;5.60;99.90
12039;DHT22;6080;48.818;9.526;2022-11-28T00:52:32;5.60;99.90
12039;DHT22;6080;48.818;9.526;2022-11-28T00:54:57;5.60;99.90
12039;DHT22;6080;48.818;9.526;2022-11-28T00:57:23;5.60;99.90
12039;DHT22;6080;48.818;9.526;2022-11-28T00:59:49;5.70;99.90
12039;DHT22;6080;48.818;9.526;2022-11-28T01:02:15;5.70;99.90
12039;DHT22;6080;48.818;9.526;2022-11-28T01:04:41;5.70;99.90
12039;DHT22;6080;48.818;9.526;2022-11-28T01:07:06;5.70;99.90
12039;DHT22;6080;48.818;9.526;2022-11-28T01:09:32;5.80;99.90
12039;DHT22;6080;48.818;9.526;2022-11-28T01:11:58;5.80;99.90
12039;DHT22;6080;48.818;9.526;2022-11-28T01:14:24;5.70;99.90
12039;DHT22;6080;48.818;9.526;2022-11-28T01:16:50;5.70;99.90
12039;DHT22;6080;48.818;9.526;2022-11-28T01:19:16;5.80;99.90
12039;DHT22;6080;48.818;9.526;2022-11-28T01:21:42;5.80;99.90
12039;DHT22;6080;48.818;9.526;2022-11-28T01:24:08;5.70;99.90
12039;DHT22;6080;48.818;9.526;2022-11-28T01:26:34;5.80;99.90
12039;DHT22;6080;48.818;9.526;2022-11-28T01:29:00;5.80;99.90
12039;DHT22;6080;48.818;9.526;2022-11-28T01:31:27;5.80;99.90
12039;DHT22;6080;48.818;9.526;2022-11-28T01:33:55;5.80;99.90
12039;DHT22;6080;48.818;9.526;2022-11-28T01:36:21;5.80;99.90
12039;DHT22;6080;48.818;9.526;2022-11-28T01:38:48;5.80;99.90
12039;DHT22;6080;48.818;9.526;2022-11-28T01:41:16;5.70;99.90
12039;DHT22;6080;48.818;9.526;2022-11-28T01:46:41;5.60;99.90
12039;DHT22;6080;48.818;9.526;2022-11-28T01:51:47;5.60;99.90
12039;DHT22;6080;48.818;9.526;2022-11-28T01:54:15;5.60;99.90
12039;DHT22;6080;48.818;9.526;2022-11-28T01:56:57;5.60;99.90
12039;DHT22;6080;48.818;9.526;2022-11-28T01:59:26;5.60;99.90
12039;DHT22;6080;48.818;9.526;2022-11-28T02:01:53;5.60;99.90
12039;DHT22;6080;48.818;9.526;2022-11-28T02:04:19;5.70;99.90
12039;DHT22;6080;48.818;9.526;2022-11-28T02:06:45;5.70;99.90
12039;DHT22;6080;48.818;9.526;2022-11-28T02:09:12;5.60;99.90
12039;DHT22;6080;48.818;9.526;2022-11-28T02:17:26;5.50;99.90
12039;DHT22;6080;48.818;9.526;2022-11-28T02:34:10;5.40;99.90
12039;DHT22;6080;48.818;9.526;2022-11-28T02:36:46;5.30;99.90
12039;DHT22;6080;48.818;9.526;2022-11-28T02:39:26;5.30;99.90
12039;DHT22;6080;48.818;9.526;2022-11-28T02:44:38;5.30;99.90
12039;DHT22;6080;48.818;9.526;2022-11-28T02:49:36;5.30;99.90
12039;DHT22;6080;48.818;9.526;2022-11-28T02:52:11;5.40;99.90
12039;DHT22;6080;48.818;9.526;2022-11-28T02:54:38;5.30;99.90
12039;DHT22;6080;48.818;9.526;2022-11-28T02:57:05;5.30;99.90
12039;DHT22;6080;48.818;9.526;2022-11-28T02:59:45;5.40;99.90
12039;DHT22;6080;48.818;9.526;2022-11-28T03:05:06;5.40;99.90
12039;DHT22;6080;48.818;9.526;2022-11-28T03:13:52;5.30;99.90
12039;DHT22;6080;48.818;9.526;2022-11-28T03:16:34;5.20;99.90
12039;DHT22;6080;48.818;9.526;2022-11-28T03:19:04;5.20;99.90
12039;DHT22;6080;48.818;9.526;2022-11-28T03:21:46;5.20;99.90
12039;DHT22;6080;48.818;9.526;2022-11-28T03:27:17;5.20;99.90
12039;DHT22;6080;48.818;9.526;2022-11-28T03:29:57;5.20;99.90
12039;DHT22;6080;48.818;9.526;2022-11-28T03:32:29;5.20;99.90
12039;DHT22;6080;48.818;9.526;2022-11-28T03:35:06;5.20;99.90
12039;DHT22;6080;48.818;9.526;2022-11-28T03:37:48;5.20;99.90
12039;DHT22;6080;48.818;9.526;2022-11-28T03:40:18;5.10;99.90
12039;DHT22;6080;48.818;9.526;2022-11-28T03:42:52;5.20;99.90
12039;DHT22;6080;48.818;9.526;2022-11-28T03:45:27;5.20;99.90
12039;DHT22;6080;48.818;9.526;2022-11-28T03:48:00;5.20;99.90
12039;DHT22;6080;48.818;9.526;2022-11-28T03:50:51;5.20;99.90
12039;DHT22;6080;48.818;9.526;2022-11-28T03:53:28;5.10;99.90
12039;DHT22;6080;48.818;9.526;2022-11-28T03:56:06;5.10;99.90
12039;DHT22;6080;48.818;9.526;2022-11-28T03:58:40;5.10;99.90
12039;DHT22;6080;48.818;9.526;2022-11-28T04:06:43;5.10;99.90
12039;DHT22;6080;48.818;9.526;2022-11-28T04:09:17;5.10;99.90
12039;DHT22;6080;48.818;9.526;2022-11-28T04:11:56;5.20;99.90
12039;DHT22;6080;48.818;9.526;2022-11-28T04:14:36;5.20;99.90
12039;DHT22;6080;48.818;9.526;2022-11-28T04:17:09;5.10;99.90
12039;DHT22;6080;48.818;9.526;2022-11-28T04:19:47;5.10;99.90
12039;DHT22;6080;48.818;9.526;2022-11-28T04:22:22;5.10;99.90
12039;DHT22;6080;48.818;9.526;2022-11-28T04:24:59;5.00;99.90
12039;DHT22;6080;48.818;9.526;2022-11-28T04:27:34;5.00;99.90
12039;DHT22;6080;48.818;9.526;2022-11-28T04:30:01;4.90;99.90
12039;DHT22;6080;48.818;9.526;2022-11-28T04:32:29;4.90;99.90
12039;DHT22;6080;48.818;9.526;2022-11-28T04:35:08;4.90;99.90
12039;DHT22;6080;48.818;9.526;2022-11-28T04:37:38;5.00;99.90
12039;DHT22;6080;48.818;9.526;2022-11-28T04:40:07;4.90;99.90
12039;DHT22;6080;48.818;9.526;2022-11-28T04:42:41;4.90;99.90
12039;DHT22;6080;48.818;9.526;2022-11-28T04:45:15;4.90;99.90
12039;DHT22;6080;48.818;9.526;2022-11-28T04:47:42;4.90;99.90
12039;DHT22;6080;48.818;9.526;2022-11-28T04:50:08;4.90;99.90
12039;DHT22;6080;48.818;9.526;2022-11-28T04:52:39;4.90;99.90
12039;DHT22;6080;48.818;9.526;2022-11-28T04:55:27;4.90;99.90
12039;DHT22;6080;48.818;9.526;2022-11-28T04:58:39;4.90;99.90
12039;DHT22;6080;48.818;9.526;2022-11-28T05:01:08;4.90;99.90
12039;DHT22;6080;48.818;9.526;2022-11-28T05:03:34;4.80;99.90
12039;DHT22;6080;48.818;9.526;2022-11-28T05:06:01;4.80;99.90
12039;DHT22;6080;48.818;9.526;2022-11-28T05:08:28;4.70;99.90
12039;DHT22;6080;48.818;9.526;2022-11-28T05:10:53;4.70;99.90
12039;DHT22;6080;48.818;9.526;2022-11-28T05:13:19;4.80;99.90
12039;DHT22;6080;48.818;9.526;2022-11-28T05:15:45;4.70;99.90
12039;DHT22;6080;48.818;9.526;2022-11-28T05:18:11;4.70;99.90
12039;DHT22;6080;48.818;9.526;2022-11-28T05:20:37;4.60;99.90
12039;DHT22;6080;48.818;9.526;2022-11-28T05:23:03;4.60;99.90
12039;DHT22;6080;48.818;9.526;2022-11-28T05:25:29;4.70;99.90
12039;DHT22;6080;48.818;9.526;2022-11-28T05:27:54;4.70;99.90
12039;DHT22;6080;48.818;9.526;2022-11-28T05:30:20;4.70;99.90
12039;DHT22;6080;48.818;9.526;2022-11-28T05:32:46;4.70;99.90
12039;DHT22;6080;48.818;9.526;2022-11-28T05:35:12;4.70;99.90
12039;DHT22;6080;48.818;9.526;2022-11-28T05:37:38;4.60;99.90
12039;DHT22;6080;48.818;9.526;2022-11-28T05:40:05;4.60;99.90
12039;DHT22;6080;48.818;9.526;2022-11-28T05:42:35;4.60;99.90
12039;DHT22;6080;48.818;9.526;2022-11-28T05:45:01;4.60;99.90
12039;DHT22;6080;48.818;9.526;2022-11-28T05:47:31;4.50;99.90
12039;DHT22;6080;48.818;9.526;2022-11-28T05:49:57;4.50;99.90
12039;DHT22;6080;48.818;9.526;2022-11-28T05:52:23;4.50;99.90
12039;DHT22;6080;48.818;9.526;2022-11-28T05:54:49;4.50;99.90
12039;DHT22;6080;48.818;9.526;2022-11-28T05:57:15;4.50;99.90
12039;DHT22;6080;48.818;9.526;2022-11-28T05:59:40;4.50;99.90
12039;DHT22;6080;48.818;9.526;2022-11-28T06:02:07;4.50;99.90
12039;DHT22;6080;48.818;9.526;2022-11-28T06:04:33;4.50;99.90
12039;DHT22;6080;48.818;9.526;2022-11-28T06:06:59;4.50;99.90
12039;DHT22;6080;48.818;9.526;2022-11-28T06:09:24;4.60;99.90
12039;DHT22;6080;48.818;9.526;2022-11-28T06:11:50;4.60;99.90
12039;DHT22;6080;48.818;9.526;2022-11-28T06:14:16;4.70;99.90
12039;DHT22;6080;48.818;9.526;2022-11-28T06:16:42;4.60;99.90
12039;DHT22;6080;48.818;9.526;2022-11-28T06:19:11;4.60;99.90
12039;DHT22;6080;48.818;9.526;2022-11-28T06:21:37;4.50;99.90
12039;DHT22;6080;48.818;9.526;2022-11-28T06:24:03;4.50;99.90
12039;DHT22;6080;48.818;9.526;2022-11-28T06:26:29;4.50;99.90
12039;DHT22;6080;48.818;9.526;2022-11-28T06:28:55;4.50;99.90
12039;DHT22;6080;48.818;9.526;2022-11-28T06:31:25;4.50;99.90
12039;DHT22;6080;48.818;9.526;2022-11-28T06:33:55;4.50;99.90
12039;DHT22;6080;48.818;9.526;2022-11-28T06:36:21;4.60;99.90
12039;DHT22;6080;48.818;9.526;2022-11-28T06:38:47;4.60;99.90
12039;DHT22;6080;48.818;9.526;2022-11-28T06:41:16;4.60;99.90
12039;DHT22;6080;48.818;9.526;2022-11-28T06:43:42;4.60;99.90
12039;DHT22;6080;48.818;9.526;2022-11-28T06:46:17;4.60;99.90
12039;DHT22;6080;48.818;9.526;2022-11-28T06:48:44;4.70;99.90
12039;DHT22;6080;48.818;9.526;2022-11-28T06:51:10;4.70;99.90
12039;DHT22;6080;48.818;9.526;2022-11-28T06:53:36;4.60;99.90
12039;DHT22;6080;48.818;9.526;2022-11-28T06:56:12;4.60;99.90
12039;DHT22;6080;48.818;9.526;2022-11-28T06:58:39;4.50;99.90
12039;DHT22;6080;48.818;9.526;2022-11-28T07:01:24;4.50;99.90
12039;DHT22;6080;48.818;9.526;2022-11-28T07:03:50;4.50;99.90
12039;DHT22;6080;48.818;9.526;2022-11-28T07:06:17;4.50;99.90
12039;DHT22;6080;48.818;9.526;2022-11-28T07:08:44;4.50;99.90
12039;DHT22;6080;48.818;9.526;2022-11-28T07:11:19;4.50;99.90
12039;DHT22;6080;48.818;9.526;2022-11-28T07:13:46;4.50;99.90
12039;DHT22;6080;48.818;9.526;2022-11-28T07:16:18;4.50;99.90
12039;DHT22;6080;48.818;9.526;2022-11-28T07:18:44;4.50;99.90
12039;DHT22;6080;48.818;9.526;2022-11-28T07:21:11;4.50;99.90
12039;DHT22;6080;48.818;9.526;2022-11-28T07:23:39;4.50;99.90
12039;DHT22;6080;48.818;9.526;2022-11-28T07:26:05;4.50;99.90
12039;DHT22;6080;48.818;9.526;2022-11-28T07:28:33;4.60;99.90
12039;DHT22;6080;48.818;9.526;2022-11-28T07:31:04;4.60;99.90
12039;DHT22;6080;48.818;9.526;2022-11-28T07:33:31;4.60;99.90
12039;DHT22;6080;48.818;9.526;2022-11-28T07:36:05;4.70;99.90
12039;DHT22;6080;48.818;9.526;2022-11-28T07:38:31;4.70;99.90
12039;DHT22;6080;48.818;9.526;2022-11-28T07:41:07;4.80;99.90
12039;DHT22;6080;48.818;9.526;2022-11-28T07:43:33;4.80;99.90
12039;DHT22;6080;48.818;9.526;2022-11-28T07:46:02;4.80;99.90
12039;DHT22;6080;48.818;9.526;2022-11-28T07:48:28;4.90;99.90
12039;DHT22;6080;48.818;9.526;2022-11-28T07:50:54;4.90;99.90
12039;DHT22;6080;48.818;9.526;2022-11-28T07:53:20;4.90;99.90
12039;DHT22;6080;48.818;9.526;2022-11-28T07:55:46;4.90;99.90
12039;DHT22;6080;48.818;9.526;2022-11-28T07:58:12;5.00;99.90
12039;DHT22;6080;48.818;9.526;2022-11-28T08:00:38;4.90;99.90
12039;DHT22;6080;48.818;9.526;2022-11-28T08:03:04;5.00;99.90
12039;DHT22;6080;48.818;9.526;2022-11-28T08:05:30;5.00;99.90
12039;DHT22;6080;48.818;9.526;2022-11-28T08:07:56;5.10;99.90
12039;DHT22;6080;48.818;9.526;2022-11-28T08:10:22;5.20;99.90
12039;DHT22;6080;48.818;9.526;2022-11-28T08:12:47;5.20;99.90
12039;DHT22;6080;48.818;9.526;2022-11-28T08:15:13;5.20;99.90
12039;DHT22;6080;48.818;9.526;2022-11-28T08:17:39;5.20;99.90
12039;DHT22;6080;48.818;9.526;2022-11-28T08:20:06;5.30;99.90
12039;DHT22;6080;48.818;9.526;2022-11-28T08:22:32;5.30;99.90
12039;DHT22;6080;48.818;9.526;2022-11-28T08:24:58;5.40;99.90
12039;DHT22;6080;48.818;9.526;2022-11-28T08:27:24;5.40;99.90
12039;DHT22;6080;48.818;9.526;2022-11-28T08:29:49;5.40;99.90
12039;DHT22;6080;48.818;9.526;2022-11-28T08:32:15;5.50;99.90
12039;DHT22;6080;48.818;9.526;2022-11-28T08:34:41;5.60;99.90
12039;DHT22;6080;48.818;9.526;2022-11-28T08:37:07;5.70;99.90
12039;DHT22;6080;48.818;9.526;2022-11-28T08:39:33;5.80;99.90
12039;DHT22;6080;48.818;9.526;2022-11-28T08:41:58;5.80;99.90
12039;DHT22;6080;48.818;9.526;2022-11-28T08:44:25;5.90;99.90
12039;DHT22;6080;48.818;9.526;2022-11-28T08:46:52;5.90;99.90
12039;DHT22;6080;48.818;9.526;2022-11-28T08:49:18;6.00;99.90
12039;DHT22;6080;48.818;9.526;2022-11-28T08:51:44;6.10;99.90
12039;DHT22;6080;48.818;9.526;2022-11-28T08:54:10;6.20;99.90
12039;DHT22;6080;48.818;9.526;2022-11-28T08:56:36;6.30;99.90
12039;DHT22;6080;48.818;9.526;2022-11-28T08:59:02;6.30;99.90
12039;DHT22;6080;48.818;9.526;2022-11-28T09:01:28;6.40;99.90
12039;DHT22;6080;48.818;9.526;2022-11-28T09:03:54;6.50;99.90
12039;DHT22;6080;48.818;9.526;2022-11-28T09:06:21;6.50;99.90
12039;DHT22;6080;48.818;9.526;2022-11-28T09:08:48;6.60;99.90
12039;DHT22;6080;48.818;9.526;2022-11-28T09:11:17;6.50;99.90
12039;DHT22;6080;48.818;9.526;2022-11-28T09:13:44;6.60;99.90
12039;DHT22;6080;48.818;9.526;2022-11-28T09:16:11;6.60;99.90
12039;DHT22;6080;48.818;9.526;2022-11-28T09:18:36;6.60;99.90
12039;DHT22;6080;48.818;9.526;2022-11-28T09:21:05;6.60;99.90
12039;DHT22;6080;48.818;9.526;2022-11-28T09:23:34;6.60;99.90
12039;DHT22;6080;48.818;9.526;2022-11-28T09:26:00;6.60;99.90
12039;DHT22;6080;48.818;9.526;2022-11-28T09:28:31;6.70;99.90
12039;DHT22;6080;48.818;9.526;2022-11-28T09:31:01;6.70;99.90
12039;DHT22;6080;48.818;9.526;2022-11-28T09:33:27;6.70;99.90
12039;DHT22;6080;48.818;9.526;2022-11-28T09:35:53;6.80;99.90
12039;DHT22;6080;48.818;9.526;2022-11-28T09:38:24;6.80;99.90
12039;DHT22;6080;48.818;9.526;2022-11-28T09:40:51;6.80;99.90
12039;DHT22;6080;48.818;9.526;2022-11-28T09:43:37;6.80;99.90
12039;DHT22;6080;48.818;9.526;2022-11-28T09:46:11;6.90;99.90
12039;DHT22;6080;48.818;9.526;2022-11-28T09:48:44;6.90;99.90
12039;DHT22;6080;48.818;9.526;2022-11-28T09:54:12;6.80;99.90
12039;DHT22;6080;48.818;9.526;2022-11-28T09:56:39;6.80;99.90
12039;DHT22;6080;48.818;9.526;2022-11-28T09:59:16;6.90;99.90
12039;DHT22;6080;48.818;9.526;2022-11-28T10:07:23;6.80;99.90
12039;DHT22;6080;48.818;9.526;2022-11-28T10:18:00;7.10;99.90
12039;DHT22;6080;48.818;9.526;2022-11-28T10:20:31;7.10;99.90
12039;DHT22;6080;48.818;9.526;2022-11-28T10:23:10;7.00;99.90
12039;DHT22;6080;48.818;9.526;2022-11-28T10:25:59;7.10;99.90
12039;DHT22;6080;48.818;9.526;2022-11-28T10:28:37;7.00;99.90
12039;DHT22;6080;48.818;9.526;2022-11-28T10:31:29;7.10;99.90
12039;DHT22;6080;48.818;9.526;2022-11-28T10:34:27;7.00;99.90
12039;DHT22;6080;48.818;9.526;2022-11-28T10:37:05;7.10;99.90
12039;DHT22;6080;48.818;9.526;2022-11-28T10:39:43;7.30;99.90
12039;DHT22;6080;48.818;9.526;2022-11-28T10:45:13;7.50;99.90
12039;DHT22;6080;48.818;9.526;2022-11-28T10:47:58;7.50;99.90
12039;DHT22;6080;48.818;9.526;2022-11-28T10:50:37;7.60;99.90
12039;DHT22;6080;48.818;9.526;2022-11-28T11:01:35;8.20;99.90
12039;DHT22;6080;48.818;9.526;2022-11-28T11:04:01;8.30;99.90
12039;DHT22;6080;48.818;9.526;2022-11-28T11:06:27;8.40;99.90
12039;DHT22;6080;48.818;9.526;2022-11-28T11:08:53;8.40;99.90
12039;DHT22;6080;48.818;9.526;2022-11-28T11:11:26;8.50;99.90
12039;DHT22;6080;48.818;9.526;2022-11-28T11:14:07;8.60;99.90
12039;DHT22;6080;48.818;9.526;2022-11-28T11:16:50;8.60;99.90
12039;DHT22;6080;48.818;9.526;2022-11-28T11:19:29;8.60;99.90
12039;DHT22;6080;48.818;9.526;2022-11-28T11:22:21;8.70;99.90
12039;DHT22;6080;48.818;9.526;2022-11-28T11:25:12;8.70;99.90
12039;DHT22;6080;48.818;9.526;2022-11-28T11:27:49;8.80;99.90
12039;DHT22;6080;48.818;9.526;2022-11-28T11:30:28;8.90;99.90
12039;DHT22;6080;48.818;9.526;2022-11-28T11:32:56;8.90;99.90
12039;DHT22;6080;48.818;9.526;2022-11-28T11:35:25;9.10;99.90
12039;DHT22;6080;48.818;9.526;2022-11-28T11:37:51;9.00;99.90
12039;DHT22;6080;48.818;9.526;2022-11-28T11:40:23;9.00;99.90
12039;DHT22;6080;48.818;9.526;2022-11-28T11:42:59;8.80;99.90
12039;DHT22;6080;48.818;9.526;2022-11-28T11:45:33;8.70;99.90
12039;DHT22;6080;48.818;9.526;2022-11-28T11:48:00;8.80;99.90
12039;DHT22;6080;48.818;9.526;2022-11-28T11:50:28;8.80;99.90
12039;DHT22;6080;48.818;9.526;2022-11-28T11:55:28;8.70;99.90
12039;DHT22;6080;48.818;9.526;2022-11-28T11:57:56;8.60;99.90
12039;DHT22;6080;48.818;9.526;2022-11-28T12:00:32;8.70;99.90
12039;DHT22;6080;48.818;9.526;2022-11-28T12:03:03;8.70;99.90
12039;DHT22;6080;48.818;9.526;2022-11-28T12:05:51;8.70;99.90
12039;DHT22;6080;48.818;9.526;2022-11-28T12:08:39;8.80;99.90
12039;DHT22;6080;48.818;9.526;2022-11-28T12:11:14;8.80;99.90
12039;DHT22;6080;48.818;9.526;2022-11-28T12:13:43;8.80;99.90
12039;DHT22;6080;48.818;9.526;2022-11-28T12:24:13;8.70;99.90
12039;DHT22;6080;48.818;9.526;2022-11-28T12:32:21;8.70;99.90
12039;DHT22;6080;48.818;9.526;2022-11-28T12:43:52;8.90;99.90
12039;DHT22;6080;48.818;9.526;2022-11-28T12:46:53;9.00;99.90
12039;DHT22;6080;48.818;9.526;2022-11-28T12:49:41;9.00;99.90
12039;DHT22;6080;48.818;9.526;2022-11-28T12:55:17;9.10;99.90
12039;DHT22;6080;48.818;9.526;2022-11-28T13:06:15;9.00;99.90
12039;DHT22;6080;48.818;9.526;2022-11-28T13:12:13;9.00;99.90
12039;DHT22;6080;48.818;9.526;2022-11-28T13:14:47;8.90;99.90
12039;DHT22;6080;48.818;9.526;2022-11-28T13:20:24;8.80;99.90
12039;DHT22;6080;48.818;9.526;2022-11-28T13:25:52;8.90;99.90
12039;DHT22;6080;48.818;9.526;2022-11-28T13:31:04;8.70;99.90
12039;DHT22;6080;48.818;9.526;2022-11-28T13:33:47;8.70;99.90
12039;DHT22;6080;48.818;9.526;2022-11-28T13:36:31;8.60;99.90
12039;DHT22;6080;48.818;9.526;2022-11-28T13:41:43;8.70;99.90
12039;DHT22;6080;48.818;9.526;2022-11-28T13:44:20;8.80;99.90
12039;DHT22;6080;48.818;9.526;2022-11-28T13:46:46;8.80;99.90
12039;DHT22;6080;48.818;9.526;2022-11-28T13:49:26;8.80;99.90
12039;DHT22;6080;48.818;9.526;2022-11-28T13:59:49;8.90;99.90
12039;DHT22;6080;48.818;9.526;2022-11-28T14:02:28;8.80;99.90
12039;DHT22;6080;48.818;9.526;2022-11-28T14:04:56;8.80;99.90
12039;DHT22;6080;48.818;9.526;2022-11-28T14:07:30;8.90;99.90
12039;DHT22;6080;48.818;9.526;2022-11-28T14:22:18;8.80;99.90
12039;DHT22;6080;48.818;9.526;2022-11-28T14:27:37;8.70;99.90
12039;DHT22;6080;48.818;9.526;2022-11-28T14:30:04;8.70;99.90
12039;DHT22;6080;48.818;9.526;2022-11-28T14:32:34;8.70;99.90
12039;DHT22;6080;48.818;9.526;2022-11-28T14:35:01;8.80;99.90
12039;DHT22;6080;48.818;9.526;2022-11-28T14:39:55;8.70;99.90
12039;DHT22;6080;48.818;9.526;2022-11-28T14:52:43;8.60;99.90
12039;DHT22;6080;48.818;9.526;2022-11-28T14:57:57;8.60;99.90
12039;DHT22;6080;48.818;9.526;2022-11-28T15:00:45;8.50;99.90
12039;DHT22;6080;48.818;9.526;2022-11-28T15:06:20;8.40;99.90
12039;DHT22;6080;48.818;9.526;2022-11-28T15:11:42;8.30;99.90
12039;DHT22;6080;48.818;9.526;2022-11-28T15:14:20;8.30;99.90
12039;DHT22;6080;48.818;9.526;2022-11-28T15:16:48;8.30;99.90
12039;DHT22;6080;48.818;9.526;2022-11-28T15:19:39;8.30;99.90
12039;DHT22;6080;48.818;9.526;2022-11-28T15:22:30;8.30;99.90
12039;DHT22;6080;48.818;9.526;2022-11-28T15:24:56;8.20;99.90
12039;DHT22;6080;48.818;9.526;2022-11-28T15:27:23;8.20;99.90
12039;DHT22;6080;48.818;9.526;2022-11-28T15:30:00;8.20;99.90
12039;DHT22;6080;48.818;9.526;2022-11-28T15:32:28;8.10;99.90
12039;DHT22;6080;48.818;9.526;2022-11-28T15:35:02;8.10;99.90
12039;DHT22;6080;48.818;9.526;2022-11-28T15:37:33;8.10;99.90
12039;DHT22;6080;48.818;9.526;2022-11-28T15:40:01;8.00;99.90
12039;DHT22;6080;48.818;9.526;2022-11-28T15:42:33;8.00;99.90
12039;DHT22;6080;48.818;9.526;2022-11-28T15:45:06;8.00;99.90
12039;DHT22;6080;48.818;9.526;2022-11-28T15:47:33;7.90;99.90
12039;DHT22;6080;48.818;9.526;2022-11-28T15:50:19;7.90;99.90
12039;DHT22;6080;48.818;9.526;2022-11-28T15:53:12;7.90;99.90
12039;DHT22;6080;48.818;9.526;2022-11-28T15:55:38;7.80;99.90
12039;DHT22;6080;48.818;9.526;2022-11-28T16:00:40;7.80;99.90
12039;DHT22;6080;48.818;9.526;2022-11-28T16:03:14;7.70;99.90
12039;DHT22;6080;48.818;9.526;2022-11-28T16:05:40;7.70;99.90
12039;DHT22;6080;48.818;9.526;2022-11-28T16:08:21;7.70;99.90
12039;DHT22;6080;48.818;9.526;2022-11-28T16:10:49;7.70;99.90
12039;DHT22;6080;48.818;9.526;2022-11-28T16:13:18;7.60;99.90
12039;DHT22;6080;48.818;9.526;2022-11-28T16:15:46;7.60;99.90
12039;DHT22;6080;48.818;9.526;2022-11-28T16:18:14;7.60;99.90
12039;DHT22;6080;48.818;9.526;2022-11-28T16:20:40;7.60;99.90
12039;DHT22;6080;48.818;9.526;2022-11-28T16:23:09;7.60;99.90
12039;DHT22;6080;48.818;9.526;2022-11-28T16:25:35;7.50;99.90
12039;DHT22;6080;48.818;9.526;2022-11-28T16:28:02;7.50;99.90
12039;DHT22;6080;48.818;9.526;2022-11-28T16:30:40;7.50;99.90
12039;DHT22;6080;48.818;9.526;2022-11-28T16:33:38;7.50;99.90
12039;DHT22;6080;48.818;9.526;2022-11-28T16:38:34;7.40;99.90
12039;DHT22;6080;48.818;9.526;2022-11-28T16:41:00;7.40;99.90
12039;DHT22;6080;48.818;9.526;2022-11-28T16:43:37;7.40;99.90
12039;DHT22;6080;48.818;9.526;2022-11-28T16:46:06;7.40;99.90
12039;DHT22;6080;48.818;9.526;2022-11-28T16:48:37;7.40;99.90
12039;DHT22;6080;48.818;9.526;2022-11-28T16:53:44;7.30;99.90
12039;DHT22;6080;48.818;9.526;2022-11-28T16:59:12;7.30;99.90
12039;DHT22;6080;48.818;9.526;2022-11-28T17:01:40;7.30;99.90
12039;DHT22;6080;48.818;9.526;2022-11-28T17:04:21;7.20;99.90
12039;DHT22;6080;48.818;9.526;2022-11-28T17:06:47;7.20;99.90
12039;DHT22;6080;48.818;9.526;2022-11-28T17:09:13;7.20;99.90
12039;DHT22;6080;48.818;9.526;2022-11-28T17:11:43;7.20;99.90
12039;DHT22;6080;48.818;9.526;2022-11-28T17:14:11;7.20;99.90
12039;DHT22;6080;48.818;9.526;2022-11-28T17:16:38;7.10;99.90
12039;DHT22;6080;48.818;9.526;2022-11-28T17:19:04;7.10;99.90
12039;DHT22;6080;48.818;9.526;2022-11-28T17:21:37;7.10;99.90
12039;DHT22;6080;48.818;9.526;2022-11-28T17:24:03;7.10;99.90
12039;DHT22;6080;48.818;9.526;2022-11-28T17:26:29;7.10;99.90
12039;DHT22;6080;48.818;9.526;2022-11-28T17:28:57;7.10;99.90
12039;DHT22;6080;48.818;9.526;2022-11-28T17:31:23;7.10;99.90
12039;DHT22;6080;48.818;9.526;2022-11-28T17:33:49;7.20;99.90
12039;DHT22;6080;48.818;9.526;2022-11-28T17:36:15;7.10;99.90
12039;DHT22;6080;48.818;9.526;2022-11-28T17:38:41;7.20;99.90
12039;DHT22;6080;48.818;9.526;2022-11-28T17:41:13;7.10;99.90
12039;DHT22;6080;48.818;9.526;2022-11-28T17:43:39;7.10;99.90
12039;DHT22;6080;48.818;9.526;2022-11-28T17:46:05;7.10;99.90
12039;DHT22;6080;48.818;9.526;2022-11-28T17:48:31;7.20;99.90
12039;DHT22;6080;48.818;9.526;2022-11-28T17:50:56;7.10;99.90
12039;DHT22;6080;48.818;9.526;2022-11-28T17:53:22;7.10;99.90
12039;DHT22;6080;48.818;9.526;2022-11-28T17:55:48;7.10;99.90
12039;DHT22;6080;48.818;9.526;2022-11-28T17:58:23;7.10;99.90
12039;DHT22;6080;48.818;9.526;2022-11-28T18:00:49;7.20;99.90
12039;DHT22;6080;48.818;9.526;2022-11-28T18:03:16;7.10;99.90
12039;DHT22;6080;48.818;9.526;2022-11-28T18:05:46;7.10;99.90
12039;DHT22;6080;48.818;9.526;2022-11-28T18:08:14;7.10;99.90
12039;DHT22;6080;48.818;9.526;2022-11-28T18:10:40;7.10;99.90
12039;DHT22;6080;48.818;9.526;2022-11-28T18:13:07;7.10;99.90
12039;DHT22;6080;48.818;9.526;2022-11-28T18:15:34;7.10;99.90
12039;DHT22;6080;48.818;9.526;2022-11-28T18:18:01;7.10;99.90
12039;DHT22;6080;48.818;9.526;2022-11-28T18:20:28;7.10;99.90
12039;DHT22;6080;48.818;9.526;2022-11-28T18:22:55;7.10;99.90
12039;DHT22;6080;48.818;9.526;2022-11-28T18:25:21;7.10;99.90
12039;DHT22;6080;48.818;9.526;2022-11-28T18:27:47;7.10;99.90
12039;DHT22;6080;48.818;9.526;2022-11-28T18:30:13;7.10;99.90
12039;DHT22;6080;48.818;9.526;2022-11-28T18:32:39;7.10;99.90
12039;DHT22;6080;48.818;9.526;2022-11-28T18:35:06;7.10;99.90
12039;DHT22;6080;48.818;9.526;2022-11-28T18:37:32;7.00;99.90
12039;DHT22;6080;48.818;9.526;2022-11-28T18:39:58;7.00;99.90
12039;DHT22;6080;48.818;9.526;2022-11-28T18:42:24;6.90;99.90
12039;DHT22;6080;48.818;9.526;2022-11-28T18:44:50;6.90;99.90
12039;DHT22;6080;48.818;9.526;2022-11-28T18:47:15;7.00;99.90
12039;DHT22;6080;48.818;9.526;2022-11-28T18:49:41;7.00;99.90
12039;DHT22;6080;48.818;9.526;2022-11-28T18:52:07;7.00;99.90
12039;DHT22;6080;48.818;9.526;2022-11-28T18:54:32;7.00;99.90
12039;DHT22;6080;48.818;9.526;2022-11-28T18:56:58;7.00;99.90
12039;DHT22;6080;48.818;9.526;2022-11-28T18:59:24;7.00;99.90
12039;DHT22;6080;48.818;9.526;2022-11-28T19:01:50;7.00;99.90
12039;DHT22;6080;48.818;9.526;2022-11-28T19:04:16;6.90;99.90
12039;DHT22;6080;48.818;9.526;2022-11-28T19:06:42;6.90;99.90
12039;DHT22;6080;48.818;9.526;2022-11-28T19:09:11;7.00;99.90
12039;DHT22;6080;48.818;9.526;2022-11-28T19:11:38;7.00;99.90
12039;DHT22;6080;48.818;9.526;2022-11-28T19:14:05;7.00;99.90
12039;DHT22;6080;48.818;9.526;2022-11-28T19:16:35;7.00;99.90
12039;DHT22;6080;48.818;9.526;2022-11-28T19:19:03;7.00;99.90
12039;DHT22;6080;48.818;9.526;2022-11-28T19:21:32;7.00;99.90
12039;DHT22;6080;48.818;9.526;2022-11-28T19:23:59;7.00;99.90